sensor_id;sensor_type;location;lat;lon;timestamp;P1;durP1;ratioP1;P2;durP2;ratioP2
74995;SDS011;63545;51.690;5.202;2023-04-03T00:01:01;6.63;;;2.60;;
74995;SDS011;63545;51.690;5.202;2023-04-03T00:03:26;7.57;;;3.60;;
74995;SDS011;63545;51.690;5.202;2023-04-03T00:05:52;5.63;;;2.83;;
74995;SDS011;63545;51.690;5.202;2023-04-03T00:08:17;6.10;;;2.80;;
74995;SDS011;63545;51.690;5.202;2023-04-03T00:10:43;6.27;;;2.80;;
74995;SDS011;63545;51.690;5.202;2023-04-03T00:13:08;5.10;;;2.53;;
74995;SDS011;63545;51.690;5.202;2023-04-03T00:15:34;5.32;;;2.65;;
74995;SDS011;63545;51.690;5.202;2023-04-03T00:18:01;6.82;;;2.72;;
74995;SDS011;63545;51.690;5.202;2023-04-03T00:20:27;4.88;;;2.72;;
74995;SDS011;63545;51.690;5.202;2023-04-03T00:22:52;6.57;;;2.53;;
74995;SDS011;63545;51.690;5.202;2023-04-03T00:25:18;7.80;;;2.57;;
74995;SDS011;63545;51.690;5.202;2023-04-03T00:27:43;6.47;;;2.37;;
74995;SDS011;63545;51.690;5.202;2023-04-03T00:30:09;4.73;;;2.60;;
74995;SDS011;63545;51.690;5.202;2023-04-03T00:32:36;5.45;;;2.42;;
74995;SDS011;63545;51.690;5.202;2023-04-03T00:35:01;5.27;;;2.37;;
74995;SDS011;63545;51.690;5.202;2023-04-03T00:37:27;6.20;;;2.70;;
74995;SDS011;63545;51.690;5.202;2023-04-03T00:39:52;6.70;;;2.70;;
74995;SDS011;63545;51.690;5.202;2023-04-03T00:42:17;5.27;;;2.50;;
74995;SDS011;63545;51.690;5.202;2023-04-03T00:47:12;5.00;;;2.55;;
74995;SDS011;63545;51.690;5.202;2023-04-03T00:49:38;3.43;;;2.30;;
74995;SDS011;63545;51.690;5.202;2023-04-03T00:52:08;6.43;;;2.40;;
74995;SDS011;63545;51.690;5.202;2023-04-03T00:54:37;7.15;;;2.60;;
74995;SDS011;63545;51.690;5.202;2023-04-03T00:57:03;3.83;;;2.53;;
74995;SDS011;63545;51.690;5.202;2023-04-03T00:59:31;6.82;;;2.50;;
74995;SDS011;63545;51.690;5.202;2023-04-03T01:02:00;6.67;;;2.57;;
74995;SDS011;63545;51.690;5.202;2023-04-03T01:04:26;4.53;;;2.30;;
74995;SDS011;63545;51.690;5.202;2023-04-03T01:06:59;5.07;;;2.58;;
74995;SDS011;63545;51.690;5.202;2023-04-03T01:09:28;3.42;;;2.75;;
74995;SDS011;63545;51.690;5.202;2023-04-03T01:11:53;7.22;;;2.85;;
74995;SDS011;63545;51.690;5.202;2023-04-03T01:14:19;5.67;;;2.50;;
74995;SDS011;63545;51.690;5.202;2023-04-03T01:16:54;4.93;;;2.70;;
74995;SDS011;63545;51.690;5.202;2023-04-03T01:19:20;6.85;;;2.53;;
74995;SDS011;63545;51.690;5.202;2023-04-03T01:24:16;8.43;;;2.93;;
74995;SDS011;63545;51.690;5.202;2023-04-03T01:26:47;5.17;;;2.60;;
74995;SDS011;63545;51.690;5.202;2023-04-03T01:29:13;5.00;;;2.78;;
74995;SDS011;63545;51.690;5.202;2023-04-03T01:34:17;5.32;;;2.40;;
74995;SDS011;63545;51.690;5.202;2023-04-03T01:36:43;5.03;;;2.47;;
74995;SDS011;63545;51.690;5.202;2023-04-03T01:39:09;5.57;;;2.70;;
74995;SDS011;63545;51.690;5.202;2023-04-03T01:41:34;3.93;;;2.40;;
74995;SDS011;63545;51.690;5.202;2023-04-03T01:43:59;5.97;;;2.50;;
74995;SDS011;63545;51.690;5.202;2023-04-03T01:46:25;4.35;;;2.47;;
74995;SDS011;63545;51.690;5.202;2023-04-03T01:48:50;6.03;;;2.70;;
74995;SDS011;63545;51.690;5.202;2023-04-03T01:51:16;5.53;;;2.53;;
74995;SDS011;63545;51.690;5.202;2023-04-03T01:53:41;5.93;;;2.53;;
74995;SDS011;63545;51.690;5.202;2023-04-03T01:56:07;5.22;;;2.45;;
74995;SDS011;63545;51.690;5.202;2023-04-03T01:58:32;4.77;;;2.60;;
74995;SDS011;63545;51.690;5.202;2023-04-03T02:00:58;5.90;;;2.60;;
74995;SDS011;63545;51.690;5.202;2023-04-03T02:03:23;4.00;;;2.07;;
74995;SDS011;63545;51.690;5.202;2023-04-03T02:05:49;6.03;;;2.40;;
74995;SDS011;63545;51.690;5.202;2023-04-03T02:08:14;6.13;;;2.55;;
74995;SDS011;63545;51.690;5.202;2023-04-03T02:10:42;4.63;;;2.83;;
74995;SDS011;63545;51.690;5.202;2023-04-03T02:13:08;5.10;;;2.70;;
74995;SDS011;63545;51.690;5.202;2023-04-03T02:15:33;4.13;;;2.60;;
74995;SDS011;63545;51.690;5.202;2023-04-03T02:17:59;4.13;;;2.50;;
74995;SDS011;63545;51.690;5.202;2023-04-03T02:20:24;5.50;;;2.60;;
74995;SDS011;63545;51.690;5.202;2023-04-03T02:22:50;4.47;;;2.90;;
74995;SDS011;63545;51.690;5.202;2023-04-03T02:25:15;5.47;;;2.90;;
74995;SDS011;63545;51.690;5.202;2023-04-03T02:27:42;5.70;;;2.60;;
74995;SDS011;63545;51.690;5.202;2023-04-03T02:30:08;4.50;;;2.70;;
74995;SDS011;63545;51.690;5.202;2023-04-03T02:32:35;6.13;;;2.45;;
74995;SDS011;63545;51.690;5.202;2023-04-03T02:35:01;5.30;;;2.90;;
74995;SDS011;63545;51.690;5.202;2023-04-03T02:37:26;6.70;;;2.67;;
74995;SDS011;63545;51.690;5.202;2023-04-03T02:39:52;6.03;;;2.60;;
74995;SDS011;63545;51.690;5.202;2023-04-03T02:42:17;5.37;;;2.37;;
74995;SDS011;63545;51.690;5.202;2023-04-03T02:44:42;6.03;;;2.50;;
74995;SDS011;63545;51.690;5.202;2023-04-03T02:47:08;6.03;;;2.63;;
74995;SDS011;63545;51.690;5.202;2023-04-03T02:49:33;5.68;;;2.50;;
74995;SDS011;63545;51.690;5.202;2023-04-03T02:51:58;6.00;;;2.80;;
74995;SDS011;63545;51.690;5.202;2023-04-03T02:54:24;4.90;;;2.60;;
74995;SDS011;63545;51.690;5.202;2023-04-03T02:56:52;4.57;;;2.95;;
74995;SDS011;63545;51.690;5.202;2023-04-03T02:59:18;8.03;;;2.77;;
74995;SDS011;63545;51.690;5.202;2023-04-03T03:01:43;9.03;;;2.60;;
74995;SDS011;63545;51.690;5.202;2023-04-03T03:04:08;5.97;;;2.97;;
74995;SDS011;63545;51.690;5.202;2023-04-03T03:06:34;7.47;;;2.87;;
74995;SDS011;63545;51.690;5.202;2023-04-03T03:08:59;4.80;;;2.55;;
74995;SDS011;63545;51.690;5.202;2023-04-03T03:11:25;9.33;;;2.90;;
74995;SDS011;63545;51.690;5.202;2023-04-03T03:13:51;5.90;;;3.00;;
74995;SDS011;63545;51.690;5.202;2023-04-03T03:16:16;6.28;;;2.95;;
74995;SDS011;63545;51.690;5.202;2023-04-03T03:18:41;9.40;;;2.73;;
74995;SDS011;63545;51.690;5.202;2023-04-03T03:21:07;6.17;;;2.87;;
74995;SDS011;63545;51.690;5.202;2023-04-03T03:23:33;6.60;;;2.67;;
74995;SDS011;63545;51.690;5.202;2023-04-03T03:26:00;6.33;;;3.00;;
74995;SDS011;63545;51.690;5.202;2023-04-03T03:28:27;8.65;;;3.17;;
74995;SDS011;63545;51.690;5.202;2023-04-03T03:30:52;5.43;;;2.50;;
74995;SDS011;63545;51.690;5.202;2023-04-03T03:33:18;5.63;;;2.77;;
74995;SDS011;63545;51.690;5.202;2023-04-03T03:35:44;5.35;;;2.40;;
74995;SDS011;63545;51.690;5.202;2023-04-03T03:38:10;5.82;;;2.53;;
74995;SDS011;63545;51.690;5.202;2023-04-03T03:40:35;4.87;;;2.60;;
74995;SDS011;63545;51.690;5.202;2023-04-03T03:43:00;6.07;;;3.10;;
74995;SDS011;63545;51.690;5.202;2023-04-03T03:45:26;4.87;;;2.70;;
74995;SDS011;63545;51.690;5.202;2023-04-03T03:47:51;7.07;;;3.03;;
74995;SDS011;63545;51.690;5.202;2023-04-03T03:50:17;6.63;;;2.73;;
74995;SDS011;63545;51.690;5.202;2023-04-03T03:52:42;4.97;;;2.73;;
74995;SDS011;63545;51.690;5.202;2023-04-03T03:55:07;7.67;;;3.10;;
74995;SDS011;63545;51.690;5.202;2023-04-03T03:57:33;3.92;;;2.75;;
74995;SDS011;63545;51.690;5.202;2023-04-03T03:59:58;6.10;;;2.80;;
74995;SDS011;63545;51.690;5.202;2023-04-03T04:02:24;6.47;;;2.90;;
74995;SDS011;63545;51.690;5.202;2023-04-03T04:04:49;5.33;;;2.77;;
74995;SDS011;63545;51.690;5.202;2023-04-03T04:07:15;5.13;;;2.85;;
74995;SDS011;63545;51.690;5.202;2023-04-03T04:09:40;5.33;;;2.70;;
74995;SDS011;63545;51.690;5.202;2023-04-03T04:12:06;4.73;;;2.80;;
74995;SDS011;63545;51.690;5.202;2023-04-03T04:14:31;6.17;;;2.70;;
74995;SDS011;63545;51.690;5.202;2023-04-03T04:16:56;4.97;;;2.73;;
74995;SDS011;63545;51.690;5.202;2023-04-03T04:19:22;6.23;;;2.90;;
74995;SDS011;63545;51.690;5.202;2023-04-03T04:21:47;8.43;;;2.90;;
74995;SDS011;63545;51.690;5.202;2023-04-03T04:24:12;6.95;;;2.88;;
74995;SDS011;63545;51.690;5.202;2023-04-03T04:26:38;6.47;;;3.23;;
74995;SDS011;63545;51.690;5.202;2023-04-03T04:29:03;8.60;;;3.10;;
74995;SDS011;63545;51.690;5.202;2023-04-03T04:31:28;5.13;;;3.00;;
74995;SDS011;63545;51.690;5.202;2023-04-03T04:33:54;8.40;;;3.40;;
74995;SDS011;63545;51.690;5.202;2023-04-03T04:36:19;8.10;;;3.30;;
74995;SDS011;63545;51.690;5.202;2023-04-03T04:38:45;6.45;;;2.97;;
74995;SDS011;63545;51.690;5.202;2023-04-03T04:41:11;8.27;;;3.20;;
74995;SDS011;63545;51.690;5.202;2023-04-03T04:43:36;5.47;;;2.87;;
74995;SDS011;63545;51.690;5.202;2023-04-03T04:48:30;7.73;;;3.00;;
74995;SDS011;63545;51.690;5.202;2023-04-03T04:50:56;5.00;;;3.10;;
74995;SDS011;63545;51.690;5.202;2023-04-03T04:53:21;6.33;;;2.93;;
74995;SDS011;63545;51.690;5.202;2023-04-03T04:55:46;5.13;;;3.33;;
74995;SDS011;63545;51.690;5.202;2023-04-03T04:58:12;5.53;;;3.10;;
74995;SDS011;63545;51.690;5.202;2023-04-03T05:00:38;7.17;;;3.30;;
74995;SDS011;63545;51.690;5.202;2023-04-03T05:03:03;4.83;;;2.93;;
74995;SDS011;63545;51.690;5.202;2023-04-03T05:05:28;10.67;;;2.80;;
74995;SDS011;63545;51.690;5.202;2023-04-03T05:07:54;6.37;;;3.10;;
74995;SDS011;63545;51.690;5.202;2023-04-03T05:10:19;6.07;;;3.03;;
74995;SDS011;63545;51.690;5.202;2023-04-03T05:12:45;5.68;;;3.10;;
74995;SDS011;63545;51.690;5.202;2023-04-03T05:15:10;6.87;;;2.70;;
74995;SDS011;63545;51.690;5.202;2023-04-03T05:17:36;6.80;;;2.97;;
74995;SDS011;63545;51.690;5.202;2023-04-03T05:20:02;10.47;;;3.00;;
74995;SDS011;63545;51.690;5.202;2023-04-03T05:22:28;5.82;;;3.17;;
74995;SDS011;63545;51.690;5.202;2023-04-03T05:24:54;5.17;;;3.33;;
74995;SDS011;63545;51.690;5.202;2023-04-03T05:27:19;7.00;;;3.37;;
74995;SDS011;63545;51.690;5.202;2023-04-03T05:29:44;5.75;;;3.00;;
74995;SDS011;63545;51.690;5.202;2023-04-03T05:32:11;7.93;;;3.40;;
74995;SDS011;63545;51.690;5.202;2023-04-03T05:34:36;6.90;;;3.20;;
74995;SDS011;63545;51.690;5.202;2023-04-03T05:37:02;9.07;;;3.00;;
74995;SDS011;63545;51.690;5.202;2023-04-03T05:39:29;7.38;;;3.17;;
74995;SDS011;63545;51.690;5.202;2023-04-03T05:41:55;6.63;;;3.00;;
74995;SDS011;63545;51.690;5.202;2023-04-03T05:44:21;6.17;;;3.13;;
74995;SDS011;63545;51.690;5.202;2023-04-03T05:46:46;6.63;;;2.90;;
74995;SDS011;63545;51.690;5.202;2023-04-03T05:49:11;4.60;;;3.20;;
74995;SDS011;63545;51.690;5.202;2023-04-03T05:51:37;7.50;;;3.50;;
74995;SDS011;63545;51.690;5.202;2023-04-03T05:54:11;6.90;;;2.90;;
74995;SDS011;63545;51.690;5.202;2023-04-03T05:56:38;6.13;;;2.85;;
74995;SDS011;63545;51.690;5.202;2023-04-03T05:59:04;6.30;;;2.90;;
74995;SDS011;63545;51.690;5.202;2023-04-03T06:01:29;5.87;;;2.90;;
74995;SDS011;63545;51.690;5.202;2023-04-03T06:03:54;8.67;;;3.17;;
74995;SDS011;63545;51.690;5.202;2023-04-03T06:06:20;5.28;;;2.80;;
74995;SDS011;63545;51.690;5.202;2023-04-03T06:08:47;6.78;;;3.55;;
74995;SDS011;63545;51.690;5.202;2023-04-03T06:11:12;6.80;;;2.93;;
74995;SDS011;63545;51.690;5.202;2023-04-03T06:13:38;8.37;;;3.20;;
74995;SDS011;63545;51.690;5.202;2023-04-03T06:16:03;7.20;;;3.10;;
74995;SDS011;63545;51.690;5.202;2023-04-03T06:18:29;8.17;;;3.40;;
74995;SDS011;63545;51.690;5.202;2023-04-03T06:20:55;6.03;;;3.20;;
74995;SDS011;63545;51.690;5.202;2023-04-03T06:23:20;6.40;;;2.90;;
74995;SDS011;63545;51.690;5.202;2023-04-03T06:25:45;6.77;;;3.10;;
74995;SDS011;63545;51.690;5.202;2023-04-03T06:28:12;8.75;;;2.85;;
74995;SDS011;63545;51.690;5.202;2023-04-03T06:30:37;8.20;;;2.60;;
74995;SDS011;63545;51.690;5.202;2023-04-03T06:33:03;8.50;;;3.20;;
74995;SDS011;63545;51.690;5.202;2023-04-03T06:35:28;6.60;;;3.33;;
74995;SDS011;63545;51.690;5.202;2023-04-03T06:37:55;7.20;;;2.72;;
74995;SDS011;63545;51.690;5.202;2023-04-03T06:40:21;7.97;;;2.80;;
74995;SDS011;63545;51.690;5.202;2023-04-03T06:42:48;6.53;;;2.90;;
74995;SDS011;63545;51.690;5.202;2023-04-03T06:45:14;5.53;;;2.97;;
74995;SDS011;63545;51.690;5.202;2023-04-03T06:47:39;6.93;;;2.53;;
74995;SDS011;63545;51.690;5.202;2023-04-03T06:50:05;8.23;;;2.60;;
74995;SDS011;63545;51.690;5.202;2023-04-03T06:52:31;6.68;;;2.97;;
74995;SDS011;63545;51.690;5.202;2023-04-03T06:54:57;6.50;;;2.40;;
74995;SDS011;63545;51.690;5.202;2023-04-03T06:57:24;6.60;;;3.22;;
74995;SDS011;63545;51.690;5.202;2023-04-03T06:59:50;7.05;;;2.85;;
74995;SDS011;63545;51.690;5.202;2023-04-03T07:02:15;8.57;;;3.77;;
74995;SDS011;63545;51.690;5.202;2023-04-03T07:04:40;8.43;;;3.17;;
74995;SDS011;63545;51.690;5.202;2023-04-03T07:07:06;8.20;;;3.23;;
74995;SDS011;63545;51.690;5.202;2023-04-03T07:09:32;11.70;;;3.08;;
74995;SDS011;63545;51.690;5.202;2023-04-03T07:11:57;5.97;;;2.60;;
74995;SDS011;63545;51.690;5.202;2023-04-03T07:14:23;7.93;;;2.80;;
74995;SDS011;63545;51.690;5.202;2023-04-03T07:16:48;7.53;;;2.60;;
74995;SDS011;63545;51.690;5.202;2023-04-03T07:19:13;6.07;;;2.90;;
74995;SDS011;63545;51.690;5.202;2023-04-03T07:21:39;6.80;;;2.72;;
74995;SDS011;63545;51.690;5.202;2023-04-03T07:24:05;5.88;;;2.50;;
74995;SDS011;63545;51.690;5.202;2023-04-03T07:26:31;16.70;;;2.83;;
74995;SDS011;63545;51.690;5.202;2023-04-03T07:28:56;8.67;;;2.67;;
74995;SDS011;63545;51.690;5.202;2023-04-03T07:31:22;4.85;;;2.47;;
74995;SDS011;63545;51.690;5.202;2023-04-03T07:33:47;8.60;;;3.00;;
74995;SDS011;63545;51.690;5.202;2023-04-03T07:36:17;6.70;;;2.80;;
74995;SDS011;63545;51.690;5.202;2023-04-03T07:38:44;9.20;;;2.78;;
74995;SDS011;63545;51.690;5.202;2023-04-03T07:41:11;7.20;;;2.45;;
74995;SDS011;63545;51.690;5.202;2023-04-03T07:43:39;9.05;;;2.55;;
74995;SDS011;63545;51.690;5.202;2023-04-03T07:46:05;5.57;;;2.30;;
74995;SDS011;63545;51.690;5.202;2023-04-03T07:48:31;5.17;;;2.70;;
74995;SDS011;63545;51.690;5.202;2023-04-03T07:50:59;6.60;;;2.20;;
74995;SDS011;63545;51.690;5.202;2023-04-03T07:53:25;6.47;;;2.07;;
74995;SDS011;63545;51.690;5.202;2023-04-03T07:55:51;6.90;;;2.10;;
74995;SDS011;63545;51.690;5.202;2023-04-03T07:58:20;10.53;;;1.87;;
74995;SDS011;63545;51.690;5.202;2023-04-03T08:00:46;6.70;;;2.35;;
74995;SDS011;63545;51.690;5.202;2023-04-03T08:03:12;6.97;;;2.37;;
74995;SDS011;63545;51.690;5.202;2023-04-03T08:05:38;6.22;;;2.00;;
74995;SDS011;63545;51.690;5.202;2023-04-03T08:08:07;5.72;;;2.00;;
74995;SDS011;63545;51.690;5.202;2023-04-03T08:10:33;6.07;;;2.20;;
74995;SDS011;63545;51.690;5.202;2023-04-03T08:12:59;4.83;;;1.90;;
74995;SDS011;63545;51.690;5.202;2023-04-03T08:15:25;6.00;;;1.83;;
74995;SDS011;63545;51.690;5.202;2023-04-03T08:17:51;3.42;;;1.90;;
74995;SDS011;63545;51.690;5.202;2023-04-03T08:20:17;5.10;;;1.53;;
74995;SDS011;63545;51.690;5.202;2023-04-03T08:22:42;6.70;;;1.85;;
74995;SDS011;63545;51.690;5.202;2023-04-03T08:25:08;5.27;;;1.80;;
74995;SDS011;63545;51.690;5.202;2023-04-03T08:27:34;3.70;;;1.80;;
74995;SDS011;63545;51.690;5.202;2023-04-03T08:30:00;3.85;;;1.60;;
74995;SDS011;63545;51.690;5.202;2023-04-03T08:32:26;5.53;;;2.13;;
74995;SDS011;63545;51.690;5.202;2023-04-03T08:34:51;4.23;;;1.60;;
74995;SDS011;63545;51.690;5.202;2023-04-03T08:37:17;4.77;;;1.50;;
74995;SDS011;63545;51.690;5.202;2023-04-03T08:39:42;2.78;;;1.55;;
74995;SDS011;63545;51.690;5.202;2023-04-03T08:42:16;4.57;;;1.83;;
74995;SDS011;63545;51.690;5.202;2023-04-03T08:44:58;4.33;;;2.00;;
74995;SDS011;63545;51.690;5.202;2023-04-03T08:50:07;4.03;;;1.65;;
74995;SDS011;63545;51.690;5.202;2023-04-03T08:55:45;2.97;;;1.63;;
74995;SDS011;63545;51.690;5.202;2023-04-03T08:58:12;2.97;;;1.57;;
74995;SDS011;63545;51.690;5.202;2023-04-03T09:00:46;4.43;;;1.50;;
74995;SDS011;63545;51.690;5.202;2023-04-03T09:03:15;7.53;;;1.13;;
74995;SDS011;63545;51.690;5.202;2023-04-03T09:10:48;1.80;;;1.00;;
74995;SDS011;63545;51.690;5.202;2023-04-03T09:13:23;2.78;;;1.08;;
74995;SDS011;63545;51.690;5.202;2023-04-03T09:15:52;4.47;;;1.40;;
74995;SDS011;63545;51.690;5.202;2023-04-03T09:21:08;2.50;;;1.07;;
74995;SDS011;63545;51.690;5.202;2023-04-03T09:23:50;4.40;;;1.30;;
74995;SDS011;63545;51.690;5.202;2023-04-03T09:28:51;5.65;;;1.20;;
74995;SDS011;63545;51.690;5.202;2023-04-03T09:31:26;2.45;;;1.15;;
74995;SDS011;63545;51.690;5.202;2023-04-03T09:33:54;1.50;;;1.00;;
74995;SDS011;63545;51.690;5.202;2023-04-03T09:36:41;1.90;;;1.00;;
74995;SDS011;63545;51.690;5.202;2023-04-03T09:39:15;1.67;;;1.20;;
74995;SDS011;63545;51.690;5.202;2023-04-03T09:41:43;1.50;;;1.15;;
74995;SDS011;63545;51.690;5.202;2023-04-03T09:44:21;2.15;;;1.00;;
74995;SDS011;63545;51.690;5.202;2023-04-03T09:46:48;2.00;;;1.40;;
74995;SDS011;63545;51.690;5.202;2023-04-03T09:49:14;1.92;;;1.00;;
74995;SDS011;63545;51.690;5.202;2023-04-03T09:51:39;2.07;;;0.90;;
74995;SDS011;63545;51.690;5.202;2023-04-03T09:57:07;1.88;;;1.00;;
74995;SDS011;63545;51.690;5.202;2023-04-03T09:59:41;1.85;;;0.90;;
74995;SDS011;63545;51.690;5.202;2023-04-03T10:04:41;1.70;;;1.10;;
74995;SDS011;63545;51.690;5.202;2023-04-03T10:10:20;1.48;;;0.90;;
74995;SDS011;63545;51.690;5.202;2023-04-03T10:12:48;1.97;;;0.90;;
74995;SDS011;63545;51.690;5.202;2023-04-03T10:15:26;2.50;;;1.20;;
74995;SDS011;63545;51.690;5.202;2023-04-03T10:17:54;1.27;;;0.93;;
74995;SDS011;63545;51.690;5.202;2023-04-03T10:20:32;2.22;;;0.90;;
74995;SDS011;63545;51.690;5.202;2023-04-03T10:23:12;2.42;;;0.80;;
74995;SDS011;63545;51.690;5.202;2023-04-03T10:36:36;1.50;;;0.90;;
74995;SDS011;63545;51.690;5.202;2023-04-03T10:58:45;2.15;;;0.90;;
74995;SDS011;63545;51.690;5.202;2023-04-03T11:01:24;3.20;;;1.00;;
74995;SDS011;63545;51.690;5.202;2023-04-03T11:03:57;2.42;;;1.30;;
74995;SDS011;63545;51.690;5.202;2023-04-03T11:06:24;3.67;;;0.90;;
74995;SDS011;63545;51.690;5.202;2023-04-03T11:08:53;1.25;;;0.75;;
74995;SDS011;63545;51.690;5.202;2023-04-03T11:11:24;7.13;;;2.08;;
74995;SDS011;63545;51.690;5.202;2023-04-03T11:13:54;1.98;;;0.93;;
74995;SDS011;63545;51.690;5.202;2023-04-03T11:16:25;2.10;;;0.90;;
74995;SDS011;63545;51.690;5.202;2023-04-03T11:21:40;2.65;;;1.00;;
74995;SDS011;63545;51.690;5.202;2023-04-03T11:24:15;2.65;;;0.98;;
74995;SDS011;63545;51.690;5.202;2023-04-03T11:26:42;1.50;;;0.82;;
74995;SDS011;63545;51.690;5.202;2023-04-03T11:29:10;1.70;;;1.00;;
74995;SDS011;63545;51.690;5.202;2023-04-03T11:37:21;2.38;;;0.90;;
74995;SDS011;63545;51.690;5.202;2023-04-03T11:40:39;2.08;;;0.90;;
74995;SDS011;63545;51.690;5.202;2023-04-03T11:42:55;1.80;;;1.00;;
74995;SDS011;63545;51.690;5.202;2023-04-03T11:50:44;1.80;;;0.80;;
74995;SDS011;63545;51.690;5.202;2023-04-03T11:58:18;1.37;;;1.00;;
74995;SDS011;63545;51.690;5.202;2023-04-03T12:13:38;1.58;;;0.95;;
74995;SDS011;63545;51.690;5.202;2023-04-03T12:16:09;1.37;;;1.00;;
74995;SDS011;63545;51.690;5.202;2023-04-03T12:18:44;3.70;;;1.27;;
74995;SDS011;63545;51.690;5.202;2023-04-03T12:32:36;3.05;;;1.40;;
74995;SDS011;63545;51.690;5.202;2023-04-03T12:35:28;3.45;;;1.20;;
74995;SDS011;63545;51.690;5.202;2023-04-03T12:38:03;3.38;;;1.30;;
74995;SDS011;63545;51.690;5.202;2023-04-03T12:48:36;2.03;;;1.25;;
74995;SDS011;63545;51.690;5.202;2023-04-03T12:51:03;3.67;;;1.40;;
74995;SDS011;63545;51.690;5.202;2023-04-03T12:53:33;3.25;;;1.30;;
74995;SDS011;63545;51.690;5.202;2023-04-03T12:58:53;3.53;;;1.42;;
74995;SDS011;63545;51.690;5.202;2023-04-03T13:01:21;4.00;;;1.42;;
74995;SDS011;63545;51.690;5.202;2023-04-03T13:03:49;2.92;;;1.48;;
74995;SDS011;63545;51.690;5.202;2023-04-03T13:06:18;2.13;;;1.30;;
74995;SDS011;63545;51.690;5.202;2023-04-03T13:08:53;3.10;;;1.40;;
74995;SDS011;63545;51.690;5.202;2023-04-03T13:11:22;3.30;;;1.70;;
74995;SDS011;63545;51.690;5.202;2023-04-03T13:14:12;2.58;;;1.38;;
74995;SDS011;63545;51.690;5.202;2023-04-03T13:16:40;4.35;;;1.65;;
74995;SDS011;63545;51.690;5.202;2023-04-03T13:19:06;4.50;;;1.60;;
74995;SDS011;63545;51.690;5.202;2023-04-03T13:21:41;3.28;;;1.40;;
74995;SDS011;63545;51.690;5.202;2023-04-03T13:24:06;5.63;;;1.70;;
74995;SDS011;63545;51.690;5.202;2023-04-03T13:26:33;4.30;;;1.63;;
74995;SDS011;63545;51.690;5.202;2023-04-03T13:29:01;2.83;;;1.40;;
74995;SDS011;63545;51.690;5.202;2023-04-03T13:31:35;2.78;;;1.40;;
74995;SDS011;63545;51.690;5.202;2023-04-03T13:34:12;3.47;;;1.60;;
74995;SDS011;63545;51.690;5.202;2023-04-03T13:41:41;2.28;;;1.55;;
74995;SDS011;63545;51.690;5.202;2023-04-03T13:44:15;2.55;;;1.40;;
74995;SDS011;63545;51.690;5.202;2023-04-03T13:46:42;4.72;;;1.90;;
74995;SDS011;63545;51.690;5.202;2023-04-03T13:55:35;4.13;;;2.00;;
74995;SDS011;63545;51.690;5.202;2023-04-03T14:00:48;4.25;;;1.63;;
74995;SDS011;63545;51.690;5.202;2023-04-03T14:03:23;4.10;;;1.57;;
74995;SDS011;63545;51.690;5.202;2023-04-03T14:05:51;4.03;;;1.80;;
74995;SDS011;63545;51.690;5.202;2023-04-03T14:08:17;2.58;;;1.55;;
74995;SDS011;63545;51.690;5.202;2023-04-03T14:10:43;4.10;;;1.80;;
74995;SDS011;63545;51.690;5.202;2023-04-03T14:13:11;5.68;;;1.83;;
74995;SDS011;63545;51.690;5.202;2023-04-03T14:15:38;3.40;;;1.80;;
74995;SDS011;63545;51.690;5.202;2023-04-03T14:18:03;3.77;;;1.87;;
74995;SDS011;63545;51.690;5.202;2023-04-03T14:20:28;3.57;;;1.73;;
74995;SDS011;63545;51.690;5.202;2023-04-03T14:22:54;3.73;;;1.50;;
74995;SDS011;63545;51.690;5.202;2023-04-03T14:25:20;2.80;;;1.63;;
74995;SDS011;63545;51.690;5.202;2023-04-03T14:27:48;3.20;;;1.73;;
74995;SDS011;63545;51.690;5.202;2023-04-03T14:30:26;3.67;;;2.00;;
74995;SDS011;63545;51.690;5.202;2023-04-03T14:32:51;4.60;;;1.88;;
74995;SDS011;63545;51.690;5.202;2023-04-03T14:35:17;4.47;;;1.67;;
74995;SDS011;63545;51.690;5.202;2023-04-03T14:37:43;4.32;;;1.90;;
74995;SDS011;63545;51.690;5.202;2023-04-03T14:40:11;2.97;;;1.60;;
74995;SDS011;63545;51.690;5.202;2023-04-03T14:42:38;2.97;;;1.60;;
74995;SDS011;63545;51.690;5.202;2023-04-03T14:45:05;5.40;;;1.90;;
74995;SDS011;63545;51.690;5.202;2023-04-03T14:47:33;4.78;;;1.70;;
74995;SDS011;63545;51.690;5.202;2023-04-03T14:50:03;3.53;;;1.90;;
74995;SDS011;63545;51.690;5.202;2023-04-03T14:52:30;2.72;;;1.55;;
74995;SDS011;63545;51.690;5.202;2023-04-03T14:54:57;4.13;;;1.80;;
74995;SDS011;63545;51.690;5.202;2023-04-03T14:57:24;3.55;;;1.63;;
74995;SDS011;63545;51.690;5.202;2023-04-03T14:59:50;4.32;;;1.60;;
74995;SDS011;63545;51.690;5.202;2023-04-03T15:02:37;3.60;;;1.80;;
74995;SDS011;63545;51.690;5.202;2023-04-03T15:05:04;4.32;;;1.65;;
74995;SDS011;63545;51.690;5.202;2023-04-03T15:07:32;3.38;;;1.58;;
74995;SDS011;63545;51.690;5.202;2023-04-03T15:10:05;2.72;;;1.50;;
74995;SDS011;63545;51.690;5.202;2023-04-03T15:12:52;2.17;;;1.43;;
74995;SDS011;63545;51.690;5.202;2023-04-03T15:15:19;4.53;;;1.60;;
74995;SDS011;63545;51.690;5.202;2023-04-03T15:17:45;3.97;;;1.88;;
74995;SDS011;63545;51.690;5.202;2023-04-03T15:20:14;3.58;;;1.80;;
74995;SDS011;63545;51.690;5.202;2023-04-03T15:22:40;3.25;;;1.77;;
74995;SDS011;63545;51.690;5.202;2023-04-03T15:25:06;3.80;;;1.70;;
74995;SDS011;63545;51.690;5.202;2023-04-03T15:27:31;4.30;;;1.70;;
74995;SDS011;63545;51.690;5.202;2023-04-03T15:29:57;2.92;;;1.60;;
74995;SDS011;63545;51.690;5.202;2023-04-03T15:32:22;3.33;;;1.63;;
74995;SDS011;63545;51.690;5.202;2023-04-03T15:34:47;4.83;;;1.90;;
74995;SDS011;63545;51.690;5.202;2023-04-03T15:37:13;3.80;;;1.70;;
74995;SDS011;63545;51.690;5.202;2023-04-03T15:39:38;3.73;;;1.90;;
74995;SDS011;63545;51.690;5.202;2023-04-03T15:42:03;3.93;;;1.90;;
74995;SDS011;63545;51.690;5.202;2023-04-03T15:44:31;3.42;;;1.70;;
74995;SDS011;63545;51.690;5.202;2023-04-03T15:46:58;5.20;;;2.30;;
74995;SDS011;63545;51.690;5.202;2023-04-03T15:49:23;4.23;;;1.67;;
74995;SDS011;63545;51.690;5.202;2023-04-03T15:51:49;5.03;;;1.63;;
74995;SDS011;63545;51.690;5.202;2023-04-03T15:54:15;3.47;;;1.80;;
74995;SDS011;63545;51.690;5.202;2023-04-03T15:56:40;3.97;;;1.87;;
74995;SDS011;63545;51.690;5.202;2023-04-03T15:59:06;4.63;;;1.83;;
74995;SDS011;63545;51.690;5.202;2023-04-03T16:01:31;4.70;;;1.60;;
74995;SDS011;63545;51.690;5.202;2023-04-03T16:03:57;3.27;;;1.80;;
74995;SDS011;63545;51.690;5.202;2023-04-03T16:06:22;4.37;;;1.70;;
74995;SDS011;63545;51.690;5.202;2023-04-03T16:08:49;2.97;;;1.38;;
74995;SDS011;63545;51.690;5.202;2023-04-03T16:11:14;2.63;;;1.60;;
74995;SDS011;63545;51.690;5.202;2023-04-03T16:13:40;3.00;;;1.52;;
74995;SDS011;63545;51.690;5.202;2023-04-03T16:16:05;4.57;;;1.63;;
74995;SDS011;63545;51.690;5.202;2023-04-03T16:18:31;4.63;;;1.80;;
74995;SDS011;63545;51.690;5.202;2023-04-03T16:20:57;5.67;;;2.20;;
74995;SDS011;63545;51.690;5.202;2023-04-03T16:23:23;5.00;;;1.90;;
74995;SDS011;63545;51.690;5.202;2023-04-03T16:25:49;6.28;;;1.92;;
74995;SDS011;63545;51.690;5.202;2023-04-03T16:28:16;5.07;;;1.83;;
74995;SDS011;63545;51.690;5.202;2023-04-03T16:30:42;4.60;;;1.90;;
74995;SDS011;63545;51.690;5.202;2023-04-03T16:33:11;5.25;;;1.88;;
74995;SDS011;63545;51.690;5.202;2023-04-03T16:35:37;6.55;;;2.08;;
74995;SDS011;63545;51.690;5.202;2023-04-03T16:38:03;4.93;;;2.03;;
74995;SDS011;63545;51.690;5.202;2023-04-03T16:40:28;4.45;;;1.90;;
74995;SDS011;63545;51.690;5.202;2023-04-03T16:42:53;4.10;;;1.63;;
74995;SDS011;63545;51.690;5.202;2023-04-03T16:45:19;4.93;;;1.73;;
74995;SDS011;63545;51.690;5.202;2023-04-03T16:47:44;2.97;;;2.00;;
74995;SDS011;63545;51.690;5.202;2023-04-03T16:50:10;5.10;;;2.07;;
74995;SDS011;63545;51.690;5.202;2023-04-03T16:52:35;3.85;;;1.77;;
74995;SDS011;63545;51.690;5.202;2023-04-03T16:55:00;5.07;;;1.90;;
74995;SDS011;63545;51.690;5.202;2023-04-03T16:57:26;6.33;;;2.00;;
74995;SDS011;63545;51.690;5.202;2023-04-03T16:59:53;4.87;;;2.00;;
74995;SDS011;63545;51.690;5.202;2023-04-03T17:02:19;4.60;;;2.20;;